Time;durP1;ratioP1;P1;durP2;ratioP2;P2;SDS_P1;SDS_P2;PMS_P1;PMS_P2;Temp;Humidity;BMP_temperature;BMP_pressure;BME280_temperature;BME280_humidity;BME280_pressure;Samples;Min_cycle;Max_cycle;Signal;HPM_P1;HPM_P2
2022/01/22 00:01:43;;;;;;;;;;;6.10;99.90;;;;;;5098178;28;19956;-83
2022/01/22 00:04:09;;;;;;;;;;;6.10;99.90;;;;;;5099186;28;19932;-82
2022/01/22 00:06:34;;;;;;;;;;;6.10;99.90;;;;;;5097851;28;20294;-83
2022/01/22 00:09:00;;;;;;;;;;;6.10;99.90;;;;;;5098711;28;19931;-82
2022/01/22 00:11:33;;;;;;;;;;;6.10;99.90;;;;;;5097030;28;19924;-82
2022/01/22 00:16:43;;;;;;;;;;;6.10;99.90;;;;;;5099146;28;19924;-83
2022/01/22 00:19:10;;;;;;;;;;;6.10;99.90;;;;;;5097303;28;19978;-83
2022/01/22 00:21:36;;;;;;;;;;;6.10;99.90;;;;;;5098957;28;19993;-82
2022/01/22 00:24:02;;;;;;;;;;;6.10;99.90;;;;;;5097273;28;19964;-82
2022/01/22 00:26:28;;;;;;;;;;;6.10;99.90;;;;;;5097457;28;19924;-83
2022/01/22 00:28:53;;;;;;;;;;;6.10;99.90;;;;;;5096783;28;19924;-83
2022/01/22 00:31:19;;;;;;;;;;;6.10;99.90;;;;;;5097492;28;20328;-83
2022/01/22 00:33:45;;;;;;;;;;;6.60;99.90;;;;;;5094883;28;20344;-82
2022/01/22 00:36:10;;;;;;;;;;;6.20;99.90;;;;;;5097968;28;19924;-82
2022/01/22 00:38:36;;;;;;;;;;;6.10;99.90;;;;;;5096484;28;19930;-82
2022/01/22 00:41:01;;;;;;;;;;;6.10;99.90;;;;;;5078472;28;19935;-82
2022/01/22 00:43:27;;;;;;;;;;;6.10;99.90;;;;;;5089769;28;20280;-83
2022/01/22 00:45:52;;;;;;;;;;;6.50;99.90;;;;;;5074671;28;20370;-82
2022/01/22 00:48:18;;;;;;;;;;;6.10;99.90;;;;;;5075970;28;19994;-82
2022/01/22 00:50:44;;;;;;;;;;;6.20;99.90;;;;;;5077042;28;20294;-82
2022/01/22 00:53:09;;;;;;;;;;;6.20;99.90;;;;;;5078990;28;20336;-82
2022/01/22 00:55:35;;;;;;;;;;;6.50;99.90;;;;;;5078569;28;19931;-83
2022/01/22 00:58:01;;;;;;;;;;;6.20;99.90;;;;;;5076723;28;19925;-83
2022/01/22 01:00:26;;;;;;;;;;;6.10;99.90;;;;;;5078222;28;19932;-82
2022/01/22 01:02:52;;;;;;;;;;;6.20;99.90;;;;;;5077291;28;19940;-83
2022/01/22 01:05:17;;;;;;;;;;;6.20;99.90;;;;;;5060761;28;19947;-82
2022/01/22 01:07:43;;;;;;;;;;;6.20;99.90;;;;;;5076156;28;19956;-83
2022/01/22 01:10:12;;;;;;;;;;;6.20;99.90;;;;;;5077369;28;19924;-83
2022/01/22 01:12:39;;;;;;;;;;;6.20;99.90;;;;;;5059350;28;19978;-83
2022/01/22 01:34:31;;;;;;;;;;;6.20;99.90;;;;;;5016980;28;20012;-83
2022/01/22 01:36:56;;;;;;;;;;;6.20;99.90;;;;;;5034229;28;19967;-82
2022/01/22 01:39:31;;;;;;;;;;;6.70;99.90;;;;;;5033469;28;19928;-83
2022/01/22 01:42:05;;;;;;;;;;;6.40;99.90;;;;;;5033529;28;19975;-83
2022/01/22 01:44:30;;;;;;;;;;;6.20;99.90;;;;;;5033504;28;19926;-83
2022/01/22 01:46:58;;;;;;;;;;;6.20;99.90;;;;;;5017920;28;19921;-82
2022/01/22 01:49:24;;;;;;;;;;;6.50;99.90;;;;;;5017954;28;19925;-83
2022/01/22 01:51:52;;;;;;;;;;;6.30;99.90;;;;;;5019587;28;20279;-82
2022/01/22 01:54:30;;;;;;;;;;;6.50;99.90;;;;;;5035826;28;19925;-82
2022/01/22 01:59:42;;;;;;;;;;;6.10;99.90;;;;;;5098830;28;20331;-82
2022/01/22 02:02:08;;;;;;;;;;;6.10;99.90;;;;;;5103218;28;19924;-82
2022/01/22 02:04:34;;;;;;;;;;;6.00;99.90;;;;;;5085782;28;19924;-82
2022/01/22 02:07:00;;;;;;;;;;;6.00;99.90;;;;;;5102407;28;19939;-82
2022/01/22 02:09:25;;;;;;;;;;;6.20;99.90;;;;;;5103982;28;19930;-82
2022/01/22 02:12:03;;;;;;;;;;;5.90;99.90;;;;;;5101821;28;19924;-82
2022/01/22 02:25:16;;;;;;;;;;;6.10;99.90;;;;;;5103424;28;19925;-82
2022/01/22 02:27:42;;;;;;;;;;;6.00;99.90;;;;;;5101257;28;20361;-83
2022/01/22 02:30:07;;;;;;;;;;;5.90;99.90;;;;;;5100729;28;20429;-82
2022/01/22 02:35:10;;;;;;;;;;;6.00;99.90;;;;;;5099156;28;19936;-82
2022/01/22 02:37:40;;;;;;;;;;;6.00;99.90;;;;;;5098914;28;19955;-82
2022/01/22 02:40:13;;;;;;;;;;;6.00;99.90;;;;;;5098038;28;19935;-82
2022/01/22 02:42:39;;;;;;;;;;;6.00;99.90;;;;;;5099857;28;19924;-82
2022/01/22 02:45:11;;;;;;;;;;;6.10;99.90;;;;;;5079036;28;19932;-82
2022/01/22 02:47:37;;;;;;;;;;;6.00;99.90;;;;;;5080858;28;19925;-82
2022/01/22 02:50:06;;;;;;;;;;;6.00;99.90;;;;;;5082871;28;19924;-83
2022/01/22 02:52:32;;;;;;;;;;;6.00;99.90;;;;;;5082880;28;19936;-82
2022/01/22 02:54:58;;;;;;;;;;;6.20;99.90;;;;;;5082265;28;19925;-82
2022/01/22 02:57:24;;;;;;;;;;;6.00;99.90;;;;;;5083097;28;19925;-82
2022/01/22 02:59:49;;;;;;;;;;;5.90;99.90;;;;;;5083015;28;19925;-82
2022/01/22 03:02:15;;;;;;;;;;;5.90;99.90;;;;;;5079335;28;20389;-82
2022/01/22 03:04:41;;;;;;;;;;;6.20;99.90;;;;;;5076943;28;20440;-82
2022/01/22 03:07:07;;;;;;;;;;;5.90;99.90;;;;;;5078514;28;19925;-82
2022/01/22 03:09:39;;;;;;;;;;;5.90;99.90;;;;;;5079594;28;20304;-82
2022/01/22 03:27:45;;;;;;;;;;;5.90;99.90;;;;;;5002312;28;19925;-82
2022/01/22 03:30:11;;;;;;;;;;;5.90;99.90;;;;;;5018894;28;19995;-82
2022/01/22 03:32:49;;;;;;;;;;;5.90;99.90;;;;;;5020261;28;19925;-82
2022/01/22 03:37:44;;;;;;;;;;;6.00;99.90;;;;;;5035713;28;19925;-82
2022/01/22 03:40:12;;;;;;;;;;;5.90;99.90;;;;;;5035315;28;19925;-82
2022/01/22 03:42:38;;;;;;;;;;;5.90;99.90;;;;;;5035745;28;19929;-82
2022/01/22 03:45:05;;;;;;;;;;;5.90;99.90;;;;;;5035265;28;20358;-82
2022/01/22 03:47:30;;;;;;;;;;;5.90;99.90;;;;;;5035383;28;19928;-82
2022/01/22 03:49:56;;;;;;;;;;;5.90;99.90;;;;;;5018871;28;20019;-82
2022/01/22 03:52:24;;;;;;;;;;;6.20;99.90;;;;;;5018134;28;20019;-82
2022/01/22 03:54:50;;;;;;;;;;;5.90;99.90;;;;;;5035377;28;19931;-82
2022/01/22 03:57:15;;;;;;;;;;;5.90;99.90;;;;;;5034691;28;19976;-82
2022/01/22 03:59:41;;;;;;;;;;;6.50;99.90;;;;;;5002139;28;19925;-82
2022/01/22 04:04:49;;;;;;;;;;;5.90;99.90;;;;;;5097075;28;19939;-82
2022/01/22 04:09:45;;;;;;;;;;;6.00;99.90;;;;;;5097511;28;19924;-83
2022/01/22 04:12:13;;;;;;;;;;;5.90;99.90;;;;;;5097341;28;19950;-82
2022/01/22 04:14:46;;;;;;;;;;;5.90;99.90;;;;;;5097350;28;19924;-82
2022/01/22 04:25:28;;;;;;;;;;;5.80;99.90;;;;;;5059517;28;19932;-82
2022/01/22 04:27:54;;;;;;;;;;;5.90;99.90;;;;;;5043558;28;19924;-82
2022/01/22 04:30:21;;;;;;;;;;;5.90;99.90;;;;;;5059086;28;19986;-82
2022/01/22 04:32:47;;;;;;;;;;;5.90;99.90;;;;;;5041081;28;19972;-82
2022/01/22 04:35:13;;;;;;;;;;;6.10;99.90;;;;;;5054471;28;19925;-82
2022/01/22 04:37:38;;;;;;;;;;;5.90;99.90;;;;;;5055991;28;19925;-82
2022/01/22 04:40:05;;;;;;;;;;;6.00;99.90;;;;;;5054623;28;20397;-82
2022/01/22 04:42:33;;;;;;;;;;;5.90;99.90;;;;;;5055270;28;19925;-82
2022/01/22 04:45:04;;;;;;;;;;;5.90;99.90;;;;;;5019560;28;19956;-82
2022/01/22 04:55:31;;;;;;;;;;;6.10;99.90;;;;;;5040188;28;19956;-82
2022/01/22 04:57:56;;;;;;;;;;;5.90;99.90;;;;;;5038021;28;20350;-82
2022/01/22 05:00:22;;;;;;;;;;;5.90;99.90;;;;;;5074240;28;20027;-82
2022/01/22 05:02:48;;;;;;;;;;;5.90;99.90;;;;;;5046427;28;19925;-82
2022/01/22 05:05:13;;;;;;;;;;;5.90;99.90;;;;;;5063871;28;19924;-82
2022/01/22 05:07:39;;;;;;;;;;;5.90;99.90;;;;;;5081437;28;19943;-82
2022/01/22 05:10:05;;;;;;;;;;;5.90;99.90;;;;;;5082372;28;19924;-82
2022/01/22 05:12:31;;;;;;;;;;;5.90;99.90;;;;;;5080273;28;19931;-82
2022/01/22 05:14:56;;;;;;;;;;;5.90;99.90;;;;;;5080676;28;19925;-82
2022/01/22 05:17:22;;;;;;;;;;;5.90;99.90;;;;;;5081224;28;19925;-82
2022/01/22 05:20:25;;;;;;;;;;;5.90;99.90;;;;;;5074707;28;19931;-82
2022/01/22 05:23:08;;;;;;;;;;;5.90;99.90;;;;;;5074126;28;20400;-82
2022/01/22 05:25:38;;;;;;;;;;;5.90;99.90;;;;;;5057096;28;19952;-82
2022/01/22 05:30:56;;;;;;;;;;;5.90;99.90;;;;;;5077517;28;19925;-82
2022/01/22 05:36:55;;;;;;;;;;;5.90;99.90;;;;;;5076513;28;19931;-82
2022/01/22 05:39:07;;;;;;;;;;;5.90;99.90;;;;;;5080105;28;19924;-82
2022/01/22 05:41:32;;;;;;;;;;;5.90;99.90;;;;;;5062321;28;19935;-82
2022/01/22 05:43:58;;;;;;;;;;;5.90;99.90;;;;;;5089379;28;19920;-82
2022/01/22 05:46:24;;;;;;;;;;;5.90;99.90;;;;;;5101667;28;19931;-82
2022/01/22 05:48:49;;;;;;;;;;;5.90;99.90;;;;;;5099261;28;20382;-82
2022/01/22 05:51:16;;;;;;;;;;;6.10;99.90;;;;;;5099207;28;19931;-82
2022/01/22 05:53:59;;;;;;;;;;;6.70;99.90;;;;;;5098840;28;19981;-83
2022/01/22 06:01:53;;;;;;;;;;;6.10;99.90;;;;;;5120038;28;19924;-82
2022/01/22 06:04:18;;;;;;;;;;;5.90;99.90;;;;;;5120523;28;19931;-82
2022/01/22 06:06:44;;;;;;;;;;;6.00;99.90;;;;;;5101759;28;19924;-82
2022/01/22 06:09:10;;;;;;;;;;;5.90;99.90;;;;;;5119720;28;19920;-82
2022/01/22 06:11:51;;;;;;;;;;;6.00;99.90;;;;;;5102367;28;19927;-82
2022/01/22 06:14:17;;;;;;;;;;;6.40;99.90;;;;;;5121101;28;20408;-82
2022/01/22 06:16:43;;;;;;;;;;;5.90;99.90;;;;;;5101683;28;19924;-82
2022/01/22 06:19:08;;;;;;;;;;;5.90;99.90;;;;;;5102334;28;19987;-82
2022/01/22 06:21:34;;;;;;;;;;;5.90;99.90;;;;;;5101772;28;19987;-82
2022/01/22 06:23:59;;;;;;;;;;;5.90;99.90;;;;;;5084983;28;19945;-82
2022/01/22 06:26:25;;;;;;;;;;;5.90;99.90;;;;;;5102340;28;19928;-82
2022/01/22 06:28:50;;;;;;;;;;;5.90;99.90;;;;;;5100748;28;19924;-82
2022/01/22 06:31:15;;;;;;;;;;;5.80;99.90;;;;;;5100961;28;19924;-82
2022/01/22 06:33:42;;;;;;;;;;;5.90;99.90;;;;;;5100881;28;19927;-82
2022/01/22 06:36:07;;;;;;;;;;;5.90;99.90;;;;;;5084763;28;19972;-82
2022/01/22 06:38:33;;;;;;;;;;;5.80;99.90;;;;;;5101657;28;20006;-82
2022/01/22 06:43:43;;;;;;;;;;;5.80;99.90;;;;;;5112542;28;20015;-82
2022/01/22 06:46:09;;;;;;;;;;;5.80;99.90;;;;;;5098231;28;20013;-82
2022/01/22 06:48:34;;;;;;;;;;;5.80;99.90;;;;;;5084794;28;20412;-82
2022/01/22 06:51:01;;;;;;;;;;;5.80;99.90;;;;;;5080490;28;19924;-83
2022/01/22 06:53:27;;;;;;;;;;;5.80;99.90;;;;;;5098363;28;19970;-83
2022/01/22 06:56:03;;;;;;;;;;;5.80;99.90;;;;;;5080509;28;19928;-83
2022/01/22 06:58:28;;;;;;;;;;;5.70;99.90;;;;;;5080983;28;19931;-83
2022/01/22 07:00:54;;;;;;;;;;;5.80;99.90;;;;;;5079611;28;20339;-83
2022/01/22 07:03:19;;;;;;;;;;;5.70;99.90;;;;;;5080888;28;19932;-83
2022/01/22 07:05:45;;;;;;;;;;;5.70;99.90;;;;;;5098371;28;19931;-83
2022/01/22 07:08:10;;;;;;;;;;;6.00;99.90;;;;;;5079932;28;19928;-83
2022/01/22 07:10:36;;;;;;;;;;;6.00;99.90;;;;;;5078936;28;19932;-83
2022/01/22 07:13:02;;;;;;;;;;;5.70;99.90;;;;;;5079265;28;19935;-83
2022/01/22 07:15:28;;;;;;;;;;;5.70;99.90;;;;;;5079604;28;19924;-83
2022/01/22 07:17:55;;;;;;;;;;;5.70;99.90;;;;;;5079575;28;19924;-83
2022/01/22 07:20:27;;;;;;;;;;;5.70;99.90;;;;;;5078894;28;19924;-83
2022/01/22 07:23:00;;;;;;;;;;;5.70;99.90;;;;;;5078928;28;19974;-83
2022/01/22 07:25:26;;;;;;;;;;;5.70;99.90;;;;;;5098484;28;19928;-83
2022/01/22 07:27:52;;;;;;;;;;;5.70;99.90;;;;;;5079699;28;19974;-83
2022/01/22 07:30:17;;;;;;;;;;;5.70;99.90;;;;;;5078952;28;20393;-83
2022/01/22 07:32:44;;;;;;;;;;;5.70;99.90;;;;;;5079316;28;19924;-83
2022/01/22 07:35:11;;;;;;;;;;;6.20;99.90;;;;;;5077755;28;19931;-83
2022/01/22 07:37:36;;;;;;;;;;;5.70;99.90;;;;;;5078171;28;19924;-83
2022/01/22 07:40:03;;;;;;;;;;;5.70;99.90;;;;;;5078128;28;19928;-83
2022/01/22 07:42:29;;;;;;;;;;;5.70;99.90;;;;;;5078028;28;20310;-83
2022/01/22 07:44:54;;;;;;;;;;;5.70;99.90;;;;;;5095357;28;19938;-83
2022/01/22 07:47:20;;;;;;;;;;;5.70;99.90;;;;;;5116627;28;20339;-83
2022/01/22 07:49:45;;;;;;;;;;;5.70;99.90;;;;;;5098122;28;19927;-83
2022/01/22 07:52:11;;;;;;;;;;;5.70;99.90;;;;;;5097430;28;19969;-83
2022/01/22 07:54:36;;;;;;;;;;;5.70;99.90;;;;;;5097633;28;19923;-83
2022/01/22 07:57:02;;;;;;;;;;;5.70;99.90;;;;;;5096916;28;19924;-83
2022/01/22 07:59:29;;;;;;;;;;;5.70;99.90;;;;;;5080331;28;19959;-83
2022/01/22 08:01:55;;;;;;;;;;;5.80;99.90;;;;;;5116094;28;20452;-83
2022/01/22 08:04:24;;;;;;;;;;;5.70;99.90;;;;;;5098823;28;19974;-83
2022/01/22 08:06:50;;;;;;;;;;;5.80;99.90;;;;;;5099584;28;20370;-83
2022/01/22 08:09:16;;;;;;;;;;;5.80;99.90;;;;;;5099865;28;20363;-83
2022/01/22 08:11:41;;;;;;;;;;;5.80;99.90;;;;;;5117596;28;19935;-83
2022/01/22 08:14:09;;;;;;;;;;;5.80;99.90;;;;;;5098899;28;19972;-83
2022/01/22 08:16:35;;;;;;;;;;;6.40;99.90;;;;;;5099868;28;19983;-83
2022/01/22 08:19:00;;;;;;;;;;;5.80;99.90;;;;;;5081324;28;19962;-83
2022/01/22 08:21:26;;;;;;;;;;;5.80;99.90;;;;;;5099468;28;19920;-83
2022/01/22 08:23:51;;;;;;;;;;;5.80;99.90;;;;;;5098809;28;19927;-83
2022/01/22 08:26:21;;;;;;;;;;;5.80;99.90;;;;;;5098214;28;19985;-83
2022/01/22 08:28:53;;;;;;;;;;;5.80;99.90;;;;;;5098117;28;20296;-83
2022/01/22 08:31:25;;;;;;;;;;;5.80;99.90;;;;;;5097015;28;20479;-83
2022/01/22 08:36:35;;;;;;;;;;;5.90;99.90;;;;;;5098350;28;20378;-83
2022/01/22 08:39:01;;;;;;;;;;;5.90;99.90;;;;;;5081863;28;19931;-83
2022/01/22 08:41:26;;;;;;;;;;;5.90;99.90;;;;;;5098501;28;20442;-82
2022/01/22 08:43:54;;;;;;;;;;;5.90;99.90;;;;;;5090806;28;19928;-83
2022/01/22 08:46:19;;;;;;;;;;;5.90;99.90;;;;;;5077842;28;19924;-83
2022/01/22 08:48:45;;;;;;;;;;;5.90;99.90;;;;;;5077846;28;19924;-83
2022/01/22 08:51:12;;;;;;;;;;;5.90;99.90;;;;;;5077023;28;19939;-83
2022/01/22 08:53:38;;;;;;;;;;;5.90;99.90;;;;;;5077304;28;19924;-83
2022/01/22 08:56:05;;;;;;;;;;;5.80;99.90;;;;;;5077515;28;19920;-83
2022/01/22 08:58:31;;;;;;;;;;;5.90;99.90;;;;;;5077444;28;19924;-83
2022/01/22 09:00:56;;;;;;;;;;;5.90;99.90;;;;;;5096009;28;19978;-83
2022/01/22 09:03:23;;;;;;;;;;;5.90;99.90;;;;;;5077060;28;19982;-83
2022/01/22 09:05:49;;;;;;;;;;;5.90;99.90;;;;;;5077146;28;19931;-83
2022/01/22 09:08:15;;;;;;;;;;;5.90;99.90;;;;;;5077818;28;19928;-83
2022/01/22 09:10:41;;;;;;;;;;;6.00;99.90;;;;;;5078492;28;20018;-83
2022/01/22 09:13:06;;;;;;;;;;;6.50;99.90;;;;;;5097340;28;19931;-83
2022/01/22 09:15:32;;;;;;;;;;;6.00;99.90;;;;;;5061466;28;19928;-83
2022/01/22 09:17:57;;;;;;;;;;;6.00;99.90;;;;;;5097049;28;19989;-83
2022/01/22 09:23:17;;;;;;;;;;;6.10;99.90;;;;;;4993990;28;19932;-83
2022/01/22 09:25:43;;;;;;;;;;;6.10;99.90;;;;;;4995147;28;19930;-83
2022/01/22 09:28:11;;;;;;;;;;;6.10;99.90;;;;;;4978776;28;19926;-83
2022/01/22 09:30:38;;;;;;;;;;;6.20;99.90;;;;;;4978224;28;19930;-83
2022/01/22 09:33:03;;;;;;;;;;;6.20;99.90;;;;;;4978114;28;19980;-83
2022/01/22 09:35:29;;;;;;;;;;;6.20;99.90;;;;;;4977524;28;19925;-83
2022/01/22 09:37:54;;;;;;;;;;;6.30;99.90;;;;;;4977975;28;19980;-83
2022/01/22 09:40:21;;;;;;;;;;;6.30;99.90;;;;;;4978325;28;19934;-83
2022/01/22 09:42:46;;;;;;;;;;;6.30;99.90;;;;;;4977723;28;19965;-83
2022/01/22 09:45:13;;;;;;;;;;;6.30;99.90;;;;;;4994568;28;19937;-84
2022/01/22 09:47:42;;;;;;;;;;;6.30;99.90;;;;;;4978303;28;19925;-83
2022/01/22 09:50:08;;;;;;;;;;;6.70;99.90;;;;;;4977984;28;20512;-83
2022/01/22 09:52:34;;;;;;;;;;;6.40;99.90;;;;;;4992628;28;19926;-83
2022/01/22 09:55:00;;;;;;;;;;;6.40;99.90;;;;;;4976823;28;19964;-83
2022/01/22 09:57:26;;;;;;;;;;;6.40;99.90;;;;;;4992983;28;19936;-83
2022/01/22 09:59:52;;;;;;;;;;;6.50;99.90;;;;;;5011001;28;19928;-83
2022/01/22 10:02:19;;;;;;;;;;;6.50;99.90;;;;;;5056308;28;20363;-83
2022/01/22 10:04:48;;;;;;;;;;;6.50;99.90;;;;;;5055932;28;19983;-83
2022/01/22 10:07:14;;;;;;;;;;;6.70;99.90;;;;;;5056448;28;19967;-83
2022/01/22 10:09:59;;;;;;;;;;;6.60;99.90;;;;;;5055946;28;20011;-83
2022/01/22 10:12:26;;;;;;;;;;;6.60;99.90;;;;;;5055433;28;20011;-83
2022/01/22 10:15:05;;;;;;;;;;;6.60;99.90;;;;;;5056619;28;19925;-83
2022/01/22 10:17:58;;;;;;;;;;;6.60;99.90;;;;;;5055740;28;19924;-83
2022/01/22 10:20:24;;;;;;;;;;;6.60;99.90;;;;;;5052360;28;19968;-83
2022/01/22 10:22:50;;;;;;;;;;;6.70;99.90;;;;;;5059477;28;19975;-83
2022/01/22 10:25:33;;;;;;;;;;;6.70;99.90;;;;;;5059787;28;19931;-83
2022/01/22 10:28:00;;;;;;;;;;;6.80;99.90;;;;;;5059658;28;20019;-83
2022/01/22 10:30:38;;;;;;;;;;;6.80;99.90;;;;;;5059673;28;19994;-83
2022/01/22 10:33:20;;;;;;;;;;;7.40;99.90;;;;;;5077363;28;19970;-83
2022/01/22 10:35:46;;;;;;;;;;;6.90;99.90;;;;;;5060076;28;19939;-83
2022/01/22 10:38:12;;;;;;;;;;;6.90;99.90;;;;;;5077881;28;19924;-83
2022/01/22 10:40:38;;;;;;;;;;;7.10;99.90;;;;;;5059297;28;19970;-83
2022/01/22 10:43:25;;;;;;;;;;;6.90;99.90;;;;;;5063100;28;20429;-83
2022/01/22 10:46:06;;;;;;;;;;;6.90;99.90;;;;;;5099536;28;19928;-83
2022/01/22 10:48:32;;;;;;;;;;;6.90;99.90;;;;;;5117783;28;19928;-83
2022/01/22 10:51:00;;;;;;;;;;;7.30;99.90;;;;;;5098873;28;19923;-83
2022/01/22 10:53:42;;;;;;;;;;;6.90;99.90;;;;;;5117743;28;19927;-83
2022/01/22 10:56:09;;;;;;;;;;;6.90;99.90;;;;;;5099185;28;20338;-83
2022/01/22 10:58:34;;;;;;;;;;;6.90;99.90;;;;;;5099512;28;19937;-83
2022/01/22 11:01:05;;;;;;;;;;;6.90;99.90;;;;;;5098810;28;19920;-83
2022/01/22 11:03:31;;;;;;;;;;;6.90;99.90;;;;;;5098711;28;19928;-83
2022/01/22 11:05:57;;;;;;;;;;;6.90;99.90;;;;;;5098801;28;19924;-83
2022/01/22 11:08:23;;;;;;;;;;;6.90;99.90;;;;;;5081917;28;19920;-83
2022/01/22 11:10:49;;;;;;;;;;;6.90;99.90;;;;;;5098208;28;20401;-84
2022/01/22 11:13:15;;;;;;;;;;;6.90;99.90;;;;;;5098456;28;19928;-83
2022/01/22 11:15:41;;;;;;;;;;;6.90;99.90;;;;;;5098384;28;20393;-83
2022/01/22 11:18:07;;;;;;;;;;;6.90;99.90;;;;;;5117173;28;20061;-83
2022/01/22 11:20:33;;;;;;;;;;;7.00;99.90;;;;;;5081586;28;19923;-85
2022/01/22 11:22:59;;;;;;;;;;;7.00;99.90;;;;;;5099333;28;19931;-83
2022/01/22 11:25:26;;;;;;;;;;;7.00;99.90;;;;;;5098134;28;19924;-83
2022/01/22 11:27:52;;;;;;;;;;;7.00;99.90;;;;;;5098089;28;19935;-83
2022/01/22 11:30:18;;;;;;;;;;;7.10;99.90;;;;;;5098208;28;19924;-83
2022/01/22 11:32:44;;;;;;;;;;;7.00;99.90;;;;;;5097822;28;19924;-83
2022/01/22 11:35:11;;;;;;;;;;;7.00;99.90;;;;;;5098044;28;19930;-83
2022/01/22 11:37:39;;;;;;;;;;;7.30;99.90;;;;;;5098055;28;20046;-83
2022/01/22 11:40:15;;;;;;;;;;;7.40;99.90;;;;;;5097909;28;19927;-83
2022/01/22 11:42:55;;;;;;;;;;;7.00;99.90;;;;;;5097714;28;19934;-83
2022/01/22 11:45:26;;;;;;;;;;;7.00;99.90;;;;;;5057413;28;20424;-83
2022/01/22 11:48:10;;;;;;;;;;;7.00;99.90;;;;;;5057539;28;19924;-83
2022/01/22 11:50:36;;;;;;;;;;;7.00;99.90;;;;;;5057044;28;19930;-83
2022/01/22 11:53:20;;;;;;;;;;;7.00;99.90;;;;;;5040894;28;20007;-83
2022/01/22 11:56:04;;;;;;;;;;;7.00;99.90;;;;;;5057435;28;19977;-83
2022/01/22 11:58:32;;;;;;;;;;;7.00;99.90;;;;;;5057468;28;20125;-84
2022/01/22 12:00:57;;;;;;;;;;;7.00;99.90;;;;;;5075269;28;19924;-83
2022/01/22 12:03:23;;;;;;;;;;;7.20;99.90;;;;;;5057915;28;19931;-83
2022/01/22 12:05:54;;;;;;;;;;;7.40;99.90;;;;;;5075464;28;19931;-83
2022/01/22 12:08:20;;;;;;;;;;;7.00;99.90;;;;;;5057661;28;19970;-83
2022/01/22 12:16:36;;;;;;;;;;;7.00;99.90;;;;;;5056857;28;19963;-83
2022/01/22 12:19:03;;;;;;;;;;;7.00;99.90;;;;;;5056965;28;20418;-83
2022/01/22 12:21:31;;;;;;;;;;;7.60;99.90;;;;;;5056450;28;19986;-83
2022/01/22 12:23:57;;;;;;;;;;;7.00;99.90;;;;;;5040583;28;19925;-83
2022/01/22 12:26:37;;;;;;;;;;;7.60;99.90;;;;;;5039802;28;19972;-83
2022/01/22 12:29:23;;;;;;;;;;;7.00;99.90;;;;;;5056626;28;19932;-83
2022/01/22 12:32:04;;;;;;;;;;;7.10;99.90;;;;;;5056564;28;20018;-83
2022/01/22 12:34:48;;;;;;;;;;;7.00;99.90;;;;;;5056831;28;19924;-83
2022/01/22 12:37:18;;;;;;;;;;;7.10;99.90;;;;;;5056913;28;19970;-83
2022/01/22 12:39:49;;;;;;;;;;;7.10;99.90;;;;;;5057779;28;19924;-83
2022/01/22 12:42:24;;;;;;;;;;;7.00;99.90;;;;;;5057157;28;19931;-83
2022/01/22 12:44:56;;;;;;;;;;;7.10;99.90;;;;;;5088919;28;20429;-83
2022/01/22 12:47:22;;;;;;;;;;;7.10;99.90;;;;;;5096253;28;19928;-83
2022/01/22 12:50:01;;;;;;;;;;;7.20;99.90;;;;;;5096297;28;19977;-83
2022/01/22 12:52:27;;;;;;;;;;;7.10;99.90;;;;;;5096061;28;19924;-84
2022/01/22 12:54:57;;;;;;;;;;;7.60;99.90;;;;;;5096075;28;20022;-83
2022/01/22 12:57:25;;;;;;;;;;;7.10;99.90;;;;;;5079385;28;19928;-84
2022/01/22 12:59:54;;;;;;;;;;;7.10;99.90;;;;;;5079340;28;19930;-83
2022/01/22 13:02:20;;;;;;;;;;;7.10;99.90;;;;;;5096934;28;19964;-83
2022/01/22 13:04:58;;;;;;;;;;;7.20;99.90;;;;;;5096348;28;20378;-83
2022/01/22 13:07:25;;;;;;;;;;;7.20;99.90;;;;;;5079452;28;20014;-83
2022/01/22 13:09:54;;;;;;;;;;;7.20;99.90;;;;;;5114642;28;19924;-83
2022/01/22 13:12:20;;;;;;;;;;;7.40;99.90;;;;;;5095802;28;20400;-83
2022/01/22 13:14:46;;;;;;;;;;;7.10;99.90;;;;;;5096036;28;19928;-84
2022/01/22 13:17:12;;;;;;;;;;;7.60;99.90;;;;;;5095862;28;20322;-83
2022/01/22 13:19:38;;;;;;;;;;;7.00;99.90;;;;;;5079442;28;19981;-83
2022/01/22 13:22:03;;;;;;;;;;;7.40;99.90;;;;;;5095880;28;19924;-83
2022/01/22 13:24:29;;;;;;;;;;;6.90;99.90;;;;;;5096213;28;20281;-84
2022/01/22 13:27:06;;;;;;;;;;;7.50;99.90;;;;;;5095791;28;20454;-84
2022/01/22 13:29:34;;;;;;;;;;;6.90;99.90;;;;;;5079331;28;20011;-83
2022/01/22 13:32:00;;;;;;;;;;;6.80;99.90;;;;;;5078922;28;19986;-83
2022/01/22 13:34:48;;;;;;;;;;;6.90;99.90;;;;;;5079023;28;19924;-83
2022/01/22 13:45:21;;;;;;;;;;;6.80;99.90;;;;;;5078248;28;19920;-84
2022/01/22 13:47:55;;;;;;;;;;;7.30;99.90;;;;;;5093931;28;19929;-83
2022/01/22 13:50:22;;;;;;;;;;;7.00;99.90;;;;;;5075653;28;20362;-83
2022/01/22 13:52:49;;;;;;;;;;;6.80;99.90;;;;;;5075435;28;20286;-83
2022/01/22 13:55:14;;;;;;;;;;;6.90;99.90;;;;;;5075433;28;19970;-83
2022/01/22 13:57:43;;;;;;;;;;;6.90;99.90;;;;;;5078697;28;19928;-84
2022/01/22 14:00:11;;;;;;;;;;;6.90;99.90;;;;;;5079736;28;20365;-83
2022/01/22 14:05:25;;;;;;;;;;;6.90;99.90;;;;;;5097699;28;19974;-83
2022/01/22 14:07:57;;;;;;;;;;;7.00;99.90;;;;;;5062313;28;19928;-83
2022/01/22 14:10:25;;;;;;;;;;;6.80;99.90;;;;;;5097617;28;19928;-83
2022/01/22 14:12:58;;;;;;;;;;;6.90;99.90;;;;;;5079142;28;19924;-83
2022/01/22 14:15:24;;;;;;;;;;;6.80;99.90;;;;;;5079237;28;20378;-83
2022/01/22 14:17:53;;;;;;;;;;;6.90;99.90;;;;;;5097415;28;19997;-84
2022/01/22 14:20:23;;;;;;;;;;;6.80;99.90;;;;;;5078817;28;19931;-83
2022/01/22 14:23:04;;;;;;;;;;;6.80;99.90;;;;;;5062301;28;19925;-83
2022/01/22 14:25:30;;;;;;;;;;;6.70;99.90;;;;;;5079029;28;19924;-83
2022/01/22 14:27:56;;;;;;;;;;;6.80;99.90;;;;;;5078925;28;19931;-84
2022/01/22 14:30:29;;;;;;;;;;;7.10;99.90;;;;;;5097189;28;19928;-84
2022/01/22 14:32:58;;;;;;;;;;;6.60;99.90;;;;;;5061763;28;20363;-83
2022/01/22 14:35:24;;;;;;;;;;;6.60;99.90;;;;;;5097096;28;19946;-83
2022/01/22 14:37:53;;;;;;;;;;;6.60;99.90;;;;;;5078475;28;19928;-83
2022/01/22 14:45:57;;;;;;;;;;;6.60;99.90;;;;;;5098833;28;19924;-83
2022/01/22 14:48:23;;;;;;;;;;;6.50;99.90;;;;;;5081673;28;19924;-83
2022/01/22 14:50:48;;;;;;;;;;;6.50;99.90;;;;;;5099107;28;19924;-83
2022/01/22 14:53:20;;;;;;;;;;;6.50;99.90;;;;;;5098047;28;19928;-84
2022/01/22 14:55:50;;;;;;;;;;;6.50;99.90;;;;;;5098390;28;19935;-83
2022/01/22 14:58:16;;;;;;;;;;;6.50;99.90;;;;;;5098175;28;19924;-83
2022/01/22 15:00:42;;;;;;;;;;;6.40;99.90;;;;;;5081505;28;19932;-83
2022/01/22 15:03:07;;;;;;;;;;;6.40;99.90;;;;;;5098960;28;20315;-83
2022/01/22 15:05:33;;;;;;;;;;;6.40;99.90;;;;;;5099499;28;19930;-83
2022/01/22 15:07:59;;;;;;;;;;;6.40;99.90;;;;;;5098719;28;19930;-84
2022/01/22 15:10:25;;;;;;;;;;;6.40;99.90;;;;;;5098277;28;19927;-83
2022/01/22 15:12:51;;;;;;;;;;;6.40;99.90;;;;;;5099079;28;19924;-83
2022/01/22 15:15:19;;;;;;;;;;;6.40;99.90;;;;;;5099129;28;19988;-83
2022/01/22 15:20:16;;;;;;;;;;;6.40;99.90;;;;;;5098879;28;20263;-83
2022/01/22 15:22:42;;;;;;;;;;;6.40;99.90;;;;;;5098668;28;19928;-83
2022/01/22 15:25:08;;;;;;;;;;;6.40;99.90;;;;;;5108609;28;19923;-83
2022/01/22 15:27:34;;;;;;;;;;;6.30;99.90;;;;;;5109833;28;19924;-84
2022/01/22 15:30:11;;;;;;;;;;;6.40;99.90;;;;;;5087986;28;19924;-83
2022/01/22 15:35:06;;;;;;;;;;;6.20;99.90;;;;;;5100776;28;19924;-83
2022/01/22 15:37:32;;;;;;;;;;;6.20;99.90;;;;;;5100025;28;19928;-83
2022/01/22 15:39:58;;;;;;;;;;;6.50;99.90;;;;;;5100135;28;19924;-83
2022/01/22 15:42:23;;;;;;;;;;;6.10;99.90;;;;;;5100008;28;19985;-83
2022/01/22 15:44:49;;;;;;;;;;;6.10;99.90;;;;;;5083255;28;20003;-83
2022/01/22 15:47:14;;;;;;;;;;;6.60;99.90;;;;;;5079323;28;20067;-83
2022/01/22 15:49:43;;;;;;;;;;;6.00;99.90;;;;;;5078860;28;19924;-83
2022/01/22 15:52:09;;;;;;;;;;;6.00;99.90;;;;;;5098107;28;19979;-83
2022/01/22 15:54:34;;;;;;;;;;;6.00;99.90;;;;;;5079816;28;19936;-83
2022/01/22 15:57:04;;;;;;;;;;;6.00;99.90;;;;;;5063139;28;19924;-83
2022/01/22 15:59:29;;;;;;;;;;;6.00;99.90;;;;;;5079965;28;19988;-83
2022/01/22 16:01:55;;;;;;;;;;;6.00;99.90;;;;;;5080698;28;20028;-83
2022/01/22 16:04:20;;;;;;;;;;;5.90;99.90;;;;;;5079555;28;19924;-83
2022/01/22 16:09:19;;;;;;;;;;;5.90;99.90;;;;;;5079984;28;19928;-83
2022/01/22 16:11:45;;;;;;;;;;;5.90;99.90;;;;;;5062771;28;19977;-83
2022/01/22 16:14:10;;;;;;;;;;;6.00;99.90;;;;;;5079574;28;19924;-83
2022/01/22 16:16:38;;;;;;;;;;;5.90;99.90;;;;;;5080137;28;19924;-83
2022/01/22 16:19:04;;;;;;;;;;;5.90;99.90;;;;;;5079491;28;19969;-83
2022/01/22 16:21:31;;;;;;;;;;;5.90;99.90;;;;;;5079563;28;19989;-83
2022/01/22 16:23:56;;;;;;;;;;;5.90;99.90;;;;;;5080964;28;19924;-83
2022/01/22 16:26:22;;;;;;;;;;;5.90;99.90;;;;;;5063490;28;19935;-83
2022/01/22 16:28:48;;;;;;;;;;;5.90;99.90;;;;;;5062250;28;20398;-83
2022/01/22 16:31:14;;;;;;;;;;;5.90;99.90;;;;;;5079096;28;19924;-83
2022/01/22 16:33:39;;;;;;;;;;;5.80;99.90;;;;;;5079387;28;19924;-83
2022/01/22 16:36:05;;;;;;;;;;;5.80;99.90;;;;;;5079430;28;19975;-83
2022/01/22 16:38:30;;;;;;;;;;;5.90;99.90;;;;;;5078923;28;19970;-83
2022/01/22 16:40:56;;;;;;;;;;;5.80;99.90;;;;;;5062200;28;19978;-83
2022/01/22 16:43:29;;;;;;;;;;;5.80;99.90;;;;;;5082967;28;19927;-83